Terminal Aerodrome Forecast
Issued by NWS

Home | Current Version | Previous Version | Text Only | Print | Product List | Glossary On
Versions: 1 2 3 4 5 6 7 8 9 10 11 12 13
000
FTUS46 KHNX 301120
TAFMCE
TAF
KMCE 301120Z 3012/3112 31004KT P6SM FEW150
     FM301900 30008KT P6SM SCT150 BKN200
     FM310300 29005KT P6SM SCT100 BKN150=

USA.gov is the U.S. government's official web portal to all federal, state and local government web resources and services.